Time;durP1;ratioP1;P1;durP2;ratioP2;P2;SDS_P1;SDS_P2;PMS_P1;PMS_P2;Temp;Humidity;BMP_temperature;BMP_pressure;BME280_temperature;BME280_humidity;BME280_pressure;Samples;Min_cycle;Max_cycle;Signal;HPM_P1;HPM_P2
2023/11/25 00:01:07;;;;;;;13.73;1.70;;;;;;;2.06;100.00;101013.00;5129367;28;20081;-47
2023/11/25 00:03:35;;;;;;;11.68;1.50;;;;;;;2.01;100.00;101017.47;5131354;28;20049;-48
2023/11/25 00:06:04;;;;;;;8.55;1.50;;;;;;;1.96;100.00;101017.56;5127813;28;20039;-46
2023/11/25 00:08:33;;;;;;;6.57;1.60;;;;;;;1.94;100.00;101021.97;5128861;28;20043;-47
2023/11/25 00:11:01;;;;;;;10.10;1.88;;;;;;;1.94;100.00;101026.31;5131276;27;20409;-46
2023/11/25 00:13:34;;;;;;;11.65;2.35;;;;;;;1.93;100.00;101020.25;5132033;28;20053;-46
2023/11/25 00:16:03;;;;;;;10.35;1.70;;;;;;;1.95;100.00;101023.66;5132244;28;20383;-47
2023/11/25 00:18:33;;;;;;;9.52;1.77;;;;;;;1.95;100.00;101017.63;5130814;28;20043;-46
2023/11/25 00:21:01;;;;;;;10.30;2.58;;;;;;;1.91;100.00;101027.22;5129198;28;20066;-48
2023/11/25 00:23:29;;;;;;;8.95;1.98;;;;;;;1.92;100.00;101028.06;5127573;28;20574;-45
2023/11/25 00:25:57;;;;;;;11.75;1.80;;;;;;;1.90;100.00;101025.53;5128480;27;20066;-49
2023/11/25 00:28:25;;;;;;;10.10;2.10;;;;;;;1.94;100.00;101027.16;5132797;27;20043;-47
2023/11/25 00:30:54;;;;;;;11.20;2.05;;;;;;;1.95;100.00;101028.00;5131363;27;20051;-47
2023/11/25 00:33:22;;;;;;;14.00;2.20;;;;;;;1.98;100.00;101027.94;5132595;27;20062;-50
2023/11/25 00:35:52;;;;;;;13.57;1.80;;;;;;;1.99;100.00;101032.19;5134486;27;20070;-47
2023/11/25 00:38:20;;;;;;;14.07;1.63;;;;;;;1.96;100.00;101030.53;5132150;27;20058;-46
2023/11/25 00:40:49;;;;;;;12.20;1.90;;;;;;;1.95;100.00;101039.25;5130629;27;20051;-46
2023/11/25 00:43:17;;;;;;;12.63;1.90;;;;;;;2.01;100.00;101035.63;5131538;27;20088;-46
2023/11/25 00:45:46;;;;;;;12.77;2.00;;;;;;;1.98;100.00;101036.56;5132455;27;20103;-45
2023/11/25 00:48:14;;;;;;;12.02;1.90;;;;;;;1.95;100.00;101036.63;5132151;27;20039;-47
2023/11/25 00:50:42;;;;;;;8.63;1.67;;;;;;;1.93;100.00;101030.63;5132442;27;20055;-46
2023/11/25 00:53:12;;;;;;;12.93;1.80;;;;;;;1.96;100.00;101034.88;5134436;27;20545;-45
2023/11/25 00:55:40;;;;;;;10.02;2.05;;;;;;;1.94;100.00;101037.53;5130979;27;20104;-47
2023/11/25 00:58:08;;;;;;;11.70;2.15;;;;;;;1.96;100.00;101034.88;5131549;27;20062;-44
2023/11/25 01:00:36;;;;;;;11.82;2.50;;;;;;;1.96;100.00;101034.88;5131305;27;20078;-45
2023/11/25 01:03:04;;;;;;;21.08;1.92;;;;;;;1.99;100.00;101034.78;5131731;27;20047;-46
2023/11/25 01:05:32;;;;;;;11.77;2.03;;;;;;;2.00;100.00;101034.78;5134447;27;20047;-48
2023/11/25 01:08:00;;;;;;;12.05;2.20;;;;;;;2.01;100.00;101041.66;5133490;27;20518;-49
2023/11/25 01:10:30;;;;;;;10.32;1.77;;;;;;;2.02;100.00;101045.97;5131818;27;20038;-46
2023/11/25 01:12:58;;;;;;;10.27;2.45;;;;;;;2.04;100.00;101045.91;5131772;27;20130;-46
2023/11/25 01:15:26;;;;;;;12.98;2.20;;;;;;;2.07;100.00;101043.22;5131262;27;20043;-50
2023/11/25 01:17:54;;;;;;;16.17;3.70;;;;;;;2.12;100.00;101048.31;5131753;27;20861;-46
2023/11/25 01:20:23;;;;;;;21.85;3.03;;;;;;;2.13;100.00;101037.06;5131350;27;20412;-49
2023/11/25 01:22:51;;;;;;;12.68;2.42;;;;;;;2.16;100.00;101048.19;5134894;27;20055;-47
2023/11/25 01:25:19;;;;;;;11.98;1.67;;;;;;;2.18;100.00;101043.81;5131097;27;20194;-45
2023/11/25 01:27:50;;;;;;;12.30;2.05;;;;;;;2.21;100.00;101042.88;5131573;27;20744;-46
2023/11/25 01:30:19;;;;;;;14.38;2.40;;;;;;;2.21;100.00;101042.88;5132588;27;20051;-46
2023/11/25 01:32:48;;;;;;;15.75;2.10;;;;;;;2.23;100.00;101045.44;5131572;27;20522;-46
2023/11/25 01:35:16;;;;;;;20.45;2.17;;;;;;;2.21;100.00;101053.25;5131006;27;20126;-44
2023/11/25 01:37:44;;;;;;;14.38;1.90;;;;;;;2.19;100.00;101053.28;5131093;27;20055;-47
2023/11/25 01:40:12;;;;;;;15.82;2.55;;;;;;;2.18;100.00;101054.19;5133835;27;20046;-47
2023/11/25 01:42:40;;;;;;;17.67;2.53;;;;;;;2.19;100.00;101066.25;5131420;27;20100;-47
2023/11/25 01:45:12;;;;;;;9.20;1.77;;;;;;;2.17;100.00;101055.09;5130602;27;20532;-45
2023/11/25 01:47:41;;;;;;;14.20;2.70;;;;;;;2.17;100.00;101060.28;5131117;27;20054;-46
2023/11/25 01:50:10;;;;;;;15.55;3.15;;;;;;;2.16;100.00;101057.72;5130753;27;20145;-46
2023/11/25 01:52:39;;;;;;;14.77;1.85;;;;;;;2.21;100.00;101055.84;5131111;27;20125;-45
2023/11/25 01:55:09;;;;;;;13.80;2.17;;;;;;;2.19;100.00;101061.06;5129123;27;20047;-46
2023/11/25 01:57:37;;;;;;;11.65;1.63;;;;;;;2.17;100.00;101055.09;5130569;27;20460;-46
2023/11/25 02:00:09;;;;;;;16.30;2.97;;;;;;;2.16;100.00;101065.50;5133821;27;20151;-44
2023/11/25 02:02:42;;;;;;;16.15;2.40;;;;;;;2.18;100.00;101058.50;5132356;27;20155;-48
2023/11/25 02:05:16;;;;;;;14.52;1.90;;;;;;;2.20;100.00;101060.19;5131726;27;20142;-45
2023/11/25 02:07:46;;;;;;;11.35;2.00;;;;;;;2.23;100.00;101073.97;5130638;27;20081;-46
2023/11/25 02:10:15;;;;;;;20.20;2.90;;;;;;;2.23;100.00;101079.16;5128523;27;20162;-46
2023/11/25 02:12:43;;;;;;;19.10;2.13;;;;;;;2.26;100.00;101074.72;5130588;27;20047;-48
2023/11/25 02:15:14;;;;;;;18.10;2.45;;;;;;;2.28;100.00;101066.94;5130079;27;20407;-46
2023/11/25 02:17:45;;;;;;;11.18;2.47;;;;;;;2.26;100.00;101074.72;5130679;27;20501;-49
2023/11/25 02:20:14;;;;;;;15.88;2.58;;;;;;;2.27;100.00;101067.81;5128296;27;20158;-47
2023/11/25 02:22:58;;;;;;;16.70;2.87;;;;;;;2.29;100.00;101066.88;5133384;27;20111;-49
2023/11/25 02:25:27;;;;;;;14.40;2.53;;;;;;;2.30;100.00;101067.72;5133581;27;20047;-47
2023/11/25 02:27:56;;;;;;;16.63;1.95;;;;;;;2.33;100.00;101067.63;5132142;27;20047;-48
2023/11/25 02:30:24;;;;;;;11.85;1.58;;;;;;;2.34;100.00;101069.34;5129859;27;20528;-47
2023/11/25 02:32:52;;;;;;;12.55;1.88;;;;;;;2.41;100.00;101075.22;5130194;27;20501;-46
2023/11/25 02:35:21;;;;;;;14.35;2.25;;;;;;;2.43;100.00;101081.25;5129623;27;20047;-49
2023/11/25 02:37:51;;;;;;;13.32;1.90;;;;;;;2.41;100.00;101073.47;5130211;27;20093;-48
2023/11/25 02:40:19;;;;;;;15.75;2.33;;;;;;;2.42;100.00;101077.78;5127288;27;20051;-46
2023/11/25 02:42:48;;;;;;;12.77;2.47;;;;;;;2.44;100.00;101075.13;5128819;27;20043;-48
2023/11/25 02:45:19;;;;;;;17.73;2.08;;;;;;;2.40;100.00;101071.78;5129672;27;20054;-47
2023/11/25 02:47:48;;;;;;;19.52;2.55;;;;;;;2.40;100.00;101069.19;5130486;27;20043;-46
2023/11/25 02:50:17;;;;;;;15.02;2.15;;;;;;;2.44;100.00;101068.22;5129907;27;20057;-47
2023/11/25 02:52:46;;;;;;;9.73;1.75;;;;;;;2.41;100.00;101060.47;5133020;27;20051;-45
2023/11/25 02:55:15;;;;;;;16.05;2.10;;;;;;;2.37;100.00;101053.69;5129054;27;20092;-48
2023/11/25 02:57:45;;;;;;;13.98;1.88;;;;;;;2.39;100.00;101062.28;5130077;27;20507;-48
2023/11/25 03:00:27;;;;;;;11.85;2.13;;;;;;;2.42;100.00;101057.00;5128071;27;20051;-49
2023/11/25 03:03:09;;;;;;;17.38;3.03;;;;;;;2.43;100.00;101060.47;5131638;27;20047;-49
2023/11/25 03:05:38;;;;;;;14.68;2.33;;;;;;;2.43;100.00;101056.13;5129575;27;20046;-48
2023/11/25 03:08:09;;;;;;;13.23;2.08;;;;;;;2.43;100.00;101056.13;5129576;27;20054;-49
2023/11/25 03:10:42;;;;;;;13.23;1.77;;;;;;;2.43;100.00;101048.31;5127649;27;21025;-49
2023/11/25 03:13:10;;;;;;;;;;;;;;;2.42;100.00;101041.44;5130146;28;20061;-46
2023/11/25 03:15:40;;;;;;;13.10;1.75;;;;;;;2.42;100.00;101038.81;5129695;28;19941;-47
2023/11/25 03:18:09;;;;;;;16.17;3.20;;;;;;;2.43;100.00;101040.53;5129410;27;20417;-48
2023/11/25 03:20:39;;;;;;;10.60;2.53;;;;;;;2.40;100.00;101042.34;5129349;28;20047;-46
2023/11/25 03:23:07;;;;;;;19.23;4.18;;;;;;;2.39;100.00;101038.06;5129162;27;20897;-45
2023/11/25 03:25:37;;;;;;;15.25;2.10;;;;;;;2.37;100.00;101045.88;5127760;27;20682;-47
2023/11/25 03:28:08;;;;;;;9.05;2.00;;;;;;;2.34;100.00;101048.56;5129578;28;20498;-45
2023/11/25 03:30:37;;;;;;;11.95;1.80;;;;;;;2.30;100.00;101057.34;5129234;28;20510;-47
2023/11/25 03:33:05;;;;;;;19.02;1.88;;;;;;;2.28;100.00;101051.34;5131557;28;20051;-46
2023/11/25 03:35:34;;;;;;;19.13;2.90;;;;;;;2.26;100.00;101053.13;5129560;28;20064;-49
2023/11/25 03:38:02;;;;;;;13.95;2.10;;;;;;;2.23;100.00;101051.47;5129677;28;20055;-45
2023/11/25 03:40:31;;;;;;;13.38;2.05;;;;;;;2.21;100.00;101048.06;5127618;27;20039;-49
2023/11/25 03:42:59;;;;;;;13.68;1.70;;;;;;;2.15;100.00;101059.44;5131075;27;20043;-46
2023/11/25 03:45:29;;;;;;;14.93;2.22;;;;;;;2.13;100.00;101053.47;5132396;27;20047;-47
2023/11/25 03:47:57;;;;;;;9.15;2.03;;;;;;;2.09;100.00;101051.00;5132218;28;20066;-46
2023/11/25 03:50:25;;;;;;;11.13;1.70;;;;;;;2.06;100.00;101048.47;5131489;27;20126;-46
2023/11/25 03:52:54;;;;;;;12.20;2.17;;;;;;;2.04;100.00;101043.31;5129350;27;20047;-48
2023/11/25 03:55:25;;;;;;;13.50;2.10;;;;;;;2.01;100.00;101039.06;5130501;27;20050;-48
2023/11/25 03:57:53;;;;;;;13.38;2.10;;;;;;;1.98;100.00;101051.28;5130636;28;20963;-47
2023/11/25 04:00:22;;;;;;;10.90;2.55;;;;;;;1.97;100.00;101050.41;5128301;27;20046;-47
2023/11/25 04:02:52;;;;;;;14.23;1.92;;;;;;;1.90;100.00;101050.63;5133229;27;20078;-49
2023/11/25 04:05:23;;;;;;;12.77;1.85;;;;;;;1.91;100.00;101044.53;5134801;27;20077;-45
2023/11/25 04:07:52;;;;;;;9.90;1.90;;;;;;;1.84;100.00;101047.28;5133087;27;20053;-45
2023/11/25 04:10:21;;;;;;;14.18;1.90;;;;;;;1.82;100.00;101048.22;5130135;27;20104;-46
2023/11/25 04:12:52;;;;;;;20.40;2.22;;;;;;;1.81;100.00;101041.31;5133115;27;20122;-45
2023/11/25 04:15:21;;;;;;;10.27;1.70;;;;;;;1.79;100.00;101048.31;5132259;27;20049;-46
2023/11/25 04:17:50;;;;;;;13.50;2.38;;;;;;;1.80;100.00;101056.03;5133093;27;20432;-47
2023/11/25 04:20:27;;;;;;;14.80;2.00;;;;;;;1.80;100.00;101058.63;5133570;27;20047;-47
2023/11/25 04:22:59;;;;;;;9.57;1.70;;;;;;;1.82;100.00;101054.25;5136166;27;20047;-46
2023/11/25 04:25:28;;;;;;;9.88;2.22;;;;;;;1.82;100.00;101064.63;5135833;27;20526;-46
2023/11/25 04:27:56;;;;;;;12.77;1.80;;;;;;;1.84;100.00;101068.03;5133150;27;20049;-47
2023/11/25 04:30:24;;;;;;;15.70;1.63;;;;;;;1.91;100.00;101071.34;5131932;27;20047;-47
2023/11/25 04:32:52;;;;;;;11.10;2.20;;;;;;;1.92;100.00;101075.59;5132631;27;20104;-45
2023/11/25 04:35:22;;;;;;;12.05;2.05;;;;;;;1.98;100.00;101078.06;5134661;27;20053;-48
2023/11/25 04:37:53;;;;;;;11.38;1.85;;;;;;;1.99;100.00;101078.91;5135736;27;20062;-47
2023/11/25 04:40:21;;;;;;;11.90;1.90;;;;;;;2.06;100.00;101083.06;5135436;27;20539;-46
2023/11/25 04:42:49;;;;;;;14.43;1.80;;;;;;;2.11;100.00;101101.94;5135510;27;20055;-45
2023/11/25 04:45:19;;;;;;;11.68;2.00;;;;;;;2.18;100.00;101105.22;5134005;27;20410;-47
2023/11/25 04:47:49;;;;;;;13.10;1.70;;;;;;;2.20;100.00;101106.06;5132620;27;20043;-46
2023/11/25 04:50:20;;;;;;;14.38;2.75;;;;;;;2.27;100.00;101099.81;5131354;27;20051;-47
2023/11/25 04:52:50;;;;;;;14.07;2.63;;;;;;;2.40;100.00;101096.88;5132119;27;20055;-50
2023/11/25 04:55:18;;;;;;;12.80;1.88;;;;;;;2.46;100.00;101087.19;5129960;27;20047;-50
2023/11/25 04:57:47;;;;;;;11.45;2.05;;;;;;;2.52;100.00;101083.56;5133680;27;20043;-50
2023/11/25 05:00:17;;;;;;;16.15;1.67;;;;;;;2.50;100.00;101078.41;5135217;27;20478;-46
2023/11/25 05:02:47;;;;;;;12.43;2.05;;;;;;;2.49;100.00;101068.06;5135049;27;20049;-49
2023/11/25 05:05:15;;;;;;;13.20;2.15;;;;;;;2.50;100.00;101062.84;5131854;27;20054;-48
2023/11/25 05:07:43;;;;;;;8.82;1.42;;;;;;;2.49;100.00;101066.31;5132084;27;20047;-50
2023/11/25 05:10:14;;;;;;;14.70;2.35;;;;;;;2.45;100.00;101069.06;5130836;27;20485;-47
2023/11/25 05:12:44;;;;;;;10.85;1.75;;;;;;;2.45;100.00;101061.25;5132384;27;20493;-47
2023/11/25 05:15:13;;;;;;;12.77;2.88;;;;;;;2.45;100.00;101050.88;5134782;27;20073;-45
2023/11/25 05:17:41;;;;;;;13.38;2.08;;;;;;;2.45;100.00;101050.88;5133319;27;20043;-45
2023/11/25 05:20:15;;;;;;;11.05;2.15;;;;;;;2.48;100.00;101050.78;5134834;27;20038;-50
2023/11/25 05:22:44;;;;;;;10.93;1.90;;;;;;;2.44;100.00;101049.16;5133183;27;20518;-47
2023/11/25 05:25:14;;;;;;;13.70;2.30;;;;;;;2.44;100.00;101043.97;5129958;27;20062;-46
2023/11/25 05:27:45;;;;;;;12.90;1.98;;;;;;;2.43;100.00;101039.69;5134556;27;20457;-46
2023/11/25 05:30:14;;;;;;;14.55;1.95;;;;;;;2.42;100.00;101038.00;5129291;27;20059;-45
2023/11/25 05:32:43;;;;;;;9.52;1.50;;;;;;;2.42;100.00;101033.63;5131220;27;20514;-48
2023/11/25 05:35:12;;;;;;;7.82;1.50;;;;;;;2.39;100.00;101032.88;5130446;27;20134;-47
2023/11/25 05:37:43;;;;;;;15.85;2.58;;;;;;;2.34;100.00;101030.41;5131166;27;20047;-47
2023/11/25 05:40:14;;;;;;;10.52;1.92;;;;;;;2.29;100.00;101025.34;5129419;27;20090;-47
2023/11/25 05:42:52;;;;;;;15.38;2.30;;;;;;;2.26;100.00;101022.81;5131475;27;20505;-47
2023/11/25 05:45:26;;;;;;;11.82;1.77;;;;;;;2.24;100.00;101028.97;5130714;27;20126;-46
2023/11/25 05:47:54;;;;;;;10.05;1.48;;;;;;;2.20;100.00;101023.00;5129819;27;20070;-46
2023/11/25 05:50:23;;;;;;;11.40;1.98;;;;;;;2.20;100.00;101023.00;5128983;27;20111;-48
2023/11/25 05:52:51;;;;;;;10.55;1.88;;;;;;;2.14;100.00;101029.22;5131274;27;20035;-47
2023/11/25 05:55:21;;;;;;;9.82;1.48;;;;;;;2.11;100.00;101028.44;5129186;27;20053;-47
2023/11/25 05:57:52;;;;;;;14.30;1.77;;;;;;;2.05;100.00;101028.63;5130195;27;20100;-46
2023/11/25 06:00:22;;;;;;;12.02;1.83;;;;;;;2.06;100.00;101032.91;5130125;27;20096;-48
2023/11/25 06:02:52;;;;;;;15.23;2.30;;;;;;;2.06;100.00;101025.97;5131070;27;20071;-48
2023/11/25 06:05:21;;;;;;;14.10;2.50;;;;;;;2.01;100.00;101014.88;5129911;27;20047;-47
2023/11/25 06:07:49;;;;;;;15.10;2.05;;;;;;;1.97;100.00;101011.50;5127909;27;20051;-48
2023/11/25 06:10:18;;;;;;;11.20;1.65;;;;;;;1.98;100.00;101009.78;5128558;27;20051;-49
2023/11/25 06:12:48;;;;;;;12.68;2.00;;;;;;;1.93;100.00;101009.88;5129428;27;20054;-47
2023/11/25 06:15:19;;;;;;;13.23;2.38;;;;;;;1.90;100.00;101014.31;5129728;27;20134;-48
2023/11/25 06:17:48;;;;;;;10.75;1.92;;;;;;;1.89;100.00;101010.84;5130745;27;20490;-47
2023/11/25 06:20:16;;;;;;;12.45;2.38;;;;;;;1.96;100.00;101012.38;5129818;27;20263;-46
2023/11/25 06:22:44;;;;;;;10.32;2.30;;;;;;;1.88;100.00;101003.09;5130298;27;20555;-47
2023/11/25 06:25:13;;;;;;;12.60;2.67;;;;;;;1.87;100.00;101002.28;5131008;27;20126;-49
2023/11/25 06:27:42;;;;;;;11.90;2.70;;;;;;;1.85;100.00;101004.03;5131834;27;20043;-49
2023/11/25 06:30:16;;;;;;;9.40;2.05;;;;;;;1.84;100.00;100995.41;5129502;27;20042;-47
2023/11/25 06:32:44;;;;;;;10.00;1.75;;;;;;;1.84;100.00;101000.59;5131035;27;20433;-49
2023/11/25 06:35:13;;;;;;;7.63;1.48;;;;;;;1.84;100.00;100992.81;5130012;27;20436;-45
2023/11/25 06:37:41;;;;;;;9.15;1.35;;;;;;;1.88;100.00;101003.94;5131251;27;20043;-49
2023/11/25 06:40:12;;;;;;;4.82;1.00;;;;;;;1.85;100.00;101004.03;5129648;27;20107;-48
2023/11/25 06:42:41;;;;;;;7.35;0.95;;;;;;;1.85;100.00;100986.75;5130133;27;20648;-46
2023/11/25 06:45:10;;;;;;;6.40;0.88;;;;;;;1.85;100.00;100988.47;5132973;27;20046;-46
2023/11/25 06:47:40;;;;;;;6.43;0.98;;;;;;;1.87;100.00;100994.50;5131978;27;20044;-46
2023/11/25 06:50:09;;;;;;;4.25;0.82;;;;;;;1.89;100.00;100992.69;5128373;27;20731;-46
2023/11/25 06:52:37;;;;;;;7.97;1.23;;;;;;;1.94;100.00;100996.03;5130080;27;20039;-46
2023/11/25 06:55:09;;;;;;;5.53;1.10;;;;;;;1.98;100.00;101007.19;5128448;27;20053;-48
2023/11/25 06:57:38;;;;;;;7.75;1.20;;;;;;;2.05;100.00;101006.09;5132112;27;20046;-47
2023/11/25 07:00:10;;;;;;;8.77;1.25;;;;;;;2.09;100.00;101002.53;5133324;27;20493;-50
2023/11/25 07:02:40;;;;;;;9.88;1.08;;;;;;;2.14;100.00;100999.81;5132777;27;20043;-50
2023/11/25 07:05:10;;;;;;;6.70;1.52;;;;;;;2.24;100.00;100996.06;5133295;27;20126;-49
2023/11/25 07:07:38;;;;;;;5.10;1.02;;;;;;;2.23;100.00;100994.38;5130097;27;20063;-51
2023/11/25 07:10:09;;;;;;;4.90;1.20;;;;;;;2.22;100.00;100982.28;5128897;27;20047;-54
2023/11/25 07:12:39;;;;;;;5.55;1.05;;;;;;;2.27;100.00;100989.94;5130033;27;20061;-49
2023/11/25 07:15:09;;;;;;;5.85;1.05;;;;;;;2.30;100.00;100988.09;5129421;27;20046;-53
2023/11/25 07:17:37;;;;;;;5.85;1.08;;;;;;;2.37;100.00;100988.78;5129968;28;20055;-51
2023/11/25 07:20:13;;;;;;;6.85;0.90;;;;;;;2.38;100.00;100990.50;5129670;28;20050;-53
2023/11/25 07:22:42;;;;;;;9.85;1.08;;;;;;;2.41;100.00;100979.16;5129681;28;20039;-52
2023/11/25 07:25:12;;;;;;;7.15;1.17;;;;;;;2.45;100.00;100981.63;5128877;28;20055;-56
2023/11/25 07:27:41;;;;;;;7.45;1.35;;;;;;;2.46;100.00;100985.09;5129747;28;20045;-53
2023/11/25 07:30:10;;;;;;;8.27;1.67;;;;;;;2.48;100.00;100980.69;5128997;28;20050;-51
2023/11/25 07:32:39;;;;;;;4.90;1.13;;;;;;;2.56;100.00;100985.66;5129782;28;20114;-51
2023/11/25 07:35:10;;;;;;;3.00;1.02;;;;;;;2.56;100.00;100983.06;5110489;28;20047;-50
2023/11/25 07:37:39;;;;;;;6.50;1.13;;;;;;;2.56;100.00;100985.66;5134148;27;20075;-54
2023/11/25 07:40:13;;;;;;;7.45;0.93;;;;;;;2.53;100.00;100984.00;5132668;27;20124;-52
2023/11/25 07:42:44;;;;;;;5.65;1.10;;;;;;;2.55;100.00;100990.00;5135200;27;20032;-51
2023/11/25 07:45:12;;;;;;;8.27;1.55;;;;;;;2.58;100.00;100983.84;5136785;27;20366;-50
2023/11/25 07:47:41;;;;;;;5.68;1.10;;;;;;;2.62;100.00;100993.25;5136547;27;20047;-51
2023/11/25 07:50:12;;;;;;;3.92;1.13;;;;;;;2.62;100.00;100988.06;5136702;27;20386;-51
2023/11/25 07:52:41;;;;;;;10.32;1.60;;;;;;;2.62;100.00;100982.88;5135416;27;20524;-51
2023/11/25 07:55:09;;;;;;;6.45;1.45;;;;;;;2.62;100.00;100982.88;5132229;27;20054;-50
2023/11/25 07:57:38;;;;;;;7.00;1.20;;;;;;;2.64;100.00;100983.69;5133158;27;20070;-51
2023/11/25 08:00:07;;;;;;;5.78;1.00;;;;;;;2.65;100.00;100982.81;5133351;27;20047;-53
2023/11/25 08:02:35;;;;;;;8.07;1.35;;;;;;;2.64;100.00;100975.91;5133555;27;20047;-53
2023/11/25 08:05:04;;;;;;;8.32;1.20;;;;;;;2.63;100.00;100990.63;5134189;27;20125;-50
2023/11/25 08:07:36;;;;;;;6.45;1.30;;;;;;;2.70;100.00;100999.09;5136123;27;20063;-52
2023/11/25 08:10:07;;;;;;;8.45;1.35;;;;;;;2.73;100.00;100999.00;5133443;27;20119;-53
2023/11/25 08:12:44;;;;;;;5.32;1.10;;;;;;;2.72;100.00;100996.44;5132498;27;20058;-52
2023/11/25 08:15:14;;;;;;;2.83;1.10;;;;;;;2.78;100.00;100989.34;5132622;27;20047;-51
2023/11/25 08:17:42;;;;;;;8.10;1.50;;;;;;;2.80;100.00;100989.28;5134654;27;20050;-51
2023/11/25 08:20:11;;;;;;;8.18;1.58;;;;;;;2.86;100.00;100983.88;5132780;27;20108;-51
2023/11/25 08:22:41;;;;;;;7.88;1.30;;;;;;;2.93;100.00;100992.34;5132911;27;20096;-51
2023/11/25 08:25:10;;;;;;;6.93;1.02;;;;;;;2.88;100.00;100990.72;5131543;27;20039;-53
2023/11/25 08:27:38;;;;;;;9.50;1.52;;;;;;;2.94;100.00;100994.03;5135638;27;20058;-51
2023/11/25 08:30:09;;;;;;;8.93;1.15;;;;;;;3.02;100.00;100995.50;5135828;27;20050;-51
2023/11/25 08:32:39;;;;;;;5.47;0.98;;;;;;;3.08;100.00;100991.88;5133039;27;20047;-50
2023/11/25 08:35:09;;;;;;;9.25;1.00;;;;;;;3.11;100.00;100996.09;5132283;27;20059;-54
2023/11/25 08:37:38;;;;;;;5.80;0.95;;;;;;;3.19;100.00;100989.78;5131440;27;20059;-51
2023/11/25 08:40:15;;;;;;;7.22;1.70;;;;;;;3.19;100.00;100989.78;5130662;27;20459;-53
2023/11/25 08:42:45;;;;;;;8.48;1.10;;;;;;;3.33;100.00;100985.88;5132317;27;20099;-50
2023/11/25 08:45:14;;;;;;;6.32;1.35;;;;;;;3.46;100.00;100989.75;5132260;27;20055;-49
2023/11/25 08:47:42;;;;;;;4.97;0.98;;;;;;;3.59;100.00;100986.78;5133077;27;20123;-52
2023/11/25 08:50:15;;;;;;;6.35;1.10;;;;;;;3.68;100.00;100992.53;5131521;27;20049;-50
2023/11/25 08:52:46;;;;;;;9.32;1.40;;;;;;;3.82;100.00;100989.44;5133173;27;20500;-53
2023/11/25 08:55:19;;;;;;;7.60;1.20;;;;;;;3.96;100.00;100985.50;5132929;27;20047;-51
2023/11/25 08:57:48;;;;;;;7.53;1.10;;;;;;;4.04;100.00;100988.69;5132632;27;20125;-48
2023/11/25 09:00:18;;;;;;;4.40;0.90;;;;;;;4.07;100.00;100992.00;5131338;27;20524;-46
2023/11/25 09:02:50;;;;;;;7.68;1.38;;;;;;;4.14;100.00;100990.03;5134903;27;20039;-48
2023/11/25 09:05:21;;;;;;;7.32;0.90;;;;;;;4.11;100.00;100999.72;5135096;27;20100;-46
2023/11/25 09:07:51;;;;;;;3.15;0.93;;;;;;;4.15;100.00;100991.75;5133452;27;20055;-47
2023/11/25 09:10:22;;;;;;;5.35;1.02;;;;;;;4.23;100.00;101001.91;5129474;27;20047;-47
2023/11/25 09:12:52;;;;;;;2.35;0.65;;;;;;;4.34;100.00;100993.69;5134184;27;20047;-46
2023/11/25 09:15:22;;;;;;;3.22;1.00;;;;;;;4.42;100.00;100996.88;5131429;27;20051;-47
2023/11/25 09:17:50;;;;;;;6.28;1.13;;;;;;;4.49;100.00;100992.28;5132706;27;20517;-49
2023/11/25 09:20:23;;;;;;;;;;;;;;;4.54;100.00;100999.00;5135505;27;20081;-47
2023/11/25 09:22:52;;;;;;;5.85;1.10;;;;;;;4.60;100.00;100997.09;5134726;27;19983;-50
2023/11/25 09:25:21;;;;;;;6.15;1.02;;;;;;;4.72;100.00;100991.41;5134433;27;20071;-45
2023/11/25 09:27:51;;;;;;;4.72;1.10;;;;;;;4.84;100.00;101003.97;5134500;27;20099;-46
2023/11/25 09:30:19;;;;;;;5.28;1.20;;;;;;;5.01;100.00;100997.25;5130896;27;20477;-46
2023/11/25 09:32:48;;;;;;;4.70;1.20;;;;;;;5.07;100.00;101003.06;5131603;27;20050;-49
2023/11/25 09:35:16;;;;;;;5.57;1.00;;;;;;;5.04;100.00;101000.56;5130997;27;20050;-53
2023/11/25 09:37:45;;;;;;;6.68;1.23;;;;;;;4.99;100.00;101005.13;5132023;27;20387;-53
2023/11/25 09:40:15;;;;;;;5.53;1.10;;;;;;;4.97;100.00;101011.31;5130498;27;20043;-50
2023/11/25 09:42:47;;;;;;;7.43;1.95;;;;;;;4.97;100.00;101012.16;5134738;27;20083;-52
2023/11/25 09:45:16;;;;;;;6.90;1.80;;;;;;;5.02;100.00;101012.00;5133229;27;20374;-51
2023/11/25 09:47:44;;;;;;;8.57;1.65;;;;;;;5.06;100.00;101000.53;5131534;27;20046;-54
2023/11/25 09:50:14;;;;;;;6.30;1.17;;;;;;;5.25;100.00;100992.81;5131684;27;20058;-51
2023/11/25 09:52:49;;;;;;;6.75;1.30;;;;;;;5.38;100.00;100982.72;5131697;27;20500;-51
2023/11/25 09:55:20;;;;;;;4.15;0.70;;;;;;;5.46;100.00;100983.25;5129602;27;20051;-54
2023/11/25 09:57:54;;;;;;;6.90;1.50;;;;;;;5.58;100.00;100982.72;5131540;27;20374;-54
2023/11/25 10:00:23;;;;;;;5.40;1.02;;;;;;;5.60;100.00;100980.06;5130480;27;20784;-50
2023/11/25 10:02:53;;;;;;;6.95;1.02;;;;;;;5.69;100.00;100979.69;5133931;27;20043;-51
2023/11/25 10:05:22;;;;;;;5.07;1.20;;;;;;;5.68;100.00;100979.75;5134197;27;20039;-54
2023/11/25 10:07:50;;;;;;;7.65;1.30;;;;;;;5.68;100.00;100983.19;5133187;27;20059;-53
2023/11/25 10:10:23;;;;;;;6.57;1.00;;;;;;;5.75;100.00;100979.44;5129853;27;20134;-53
2023/11/25 10:12:53;;;;;;;5.80;1.23;;;;;;;5.71;100.00;100979.59;5131402;27;20525;-51
2023/11/25 10:15:22;;;;;;;5.10;1.08;;;;;;;5.76;100.00;100990.72;5130942;27;20095;-51
2023/11/25 10:17:55;;;;;;;6.32;1.02;;;;;;;5.74;100.00;100988.16;5131558;27;20099;-54
2023/11/25 10:20:23;;;;;;;6.32;1.23;;;;;;;5.68;100.00;100998.84;5130580;27;20159;-55
2023/11/25 10:22:53;;;;;;;10.82;1.63;;;;;;;5.69;100.00;100990.13;5132032;27;20046;-53
2023/11/25 10:25:22;;;;;;;7.55;1.33;;;;;;;5.75;100.00;100974.22;5129927;27;20047;-54
2023/11/25 10:27:55;;;;;;;10.73;1.38;;;;;;;5.72;100.00;100981.31;5131100;27;20448;-54
2023/11/25 10:30:24;;;;;;;5.18;1.20;;;;;;;5.76;100.00;100970.66;5130403;27;21020;-53
2023/11/25 10:32:56;;;;;;;9.35;1.25;;;;;;;5.72;100.00;100968.25;5130605;27;20047;-54
2023/11/25 10:35:25;;;;;;;5.75;1.30;;;;;;;5.66;100.00;100972.00;5132078;27;20512;-51
2023/11/25 10:37:54;;;;;;;10.07;1.73;;;;;;;5.66;100.00;100964.16;5133570;27;20096;-51
2023/11/25 10:40:24;;;;;;;5.70;1.73;;;;;;;5.69;100.00;100974.47;5133467;27;20050;-54
2023/11/25 10:42:55;;;;;;;12.05;2.13;;;;;;;5.69;100.00;100964.00;5133231;27;20100;-54
2023/11/25 10:45:27;;;;;;;9.43;2.30;;;;;;;5.73;100.00;100970.81;5128887;27;20453;-54
2023/11/25 10:47:57;;;;;;;;;;;;;;;5.77;100.00;100971.53;5130861;27;20071;-53
2023/11/25 10:50:26;;;;;;;9.70;2.28;;;;;;;5.89;100.00;100970.13;5129940;27;20013;-52
2023/11/25 10:52:58;;;;;;;11.45;2.15;;;;;;;5.91;100.00;100966.53;5130244;27;20537;-53
2023/11/25 10:55:26;;;;;;;17.13;2.85;;;;;;;5.99;100.00;100968.03;5127499;27;20051;-54
2023/11/25 10:57:59;;;;;;;12.50;2.22;;;;;;;6.04;100.00;100972.13;5130491;27;20054;-52
2023/11/25 11:00:30;;;;;;;7.40;1.83;;;;;;;6.09;100.00;100970.16;5131397;27;20051;-52
2023/11/25 11:03:03;;;;;;;9.35;1.73;;;;;;;6.21;100.00;100971.34;5131195;27;20382;-53
2023/11/25 11:05:37;;;;;;;12.25;2.08;;;;;;;6.25;100.00;100970.31;5130557;27;20092;-52
2023/11/25 11:08:09;;;;;;;9.52;1.90;;;;;;;6.32;100.00;100956.97;5129510;27;20047;-51
2023/11/25 11:10:47;;;;;;;10.73;1.77;;;;;;;6.25;100.00;100954.63;5128102;27;20154;-49
2023/11/25 11:13:24;;;;;;;10.75;2.55;;;;;;;6.21;100.00;100958.31;5131910;27;20043;-52
2023/11/25 11:15:54;;;;;;;12.63;2.75;;;;;;;6.18;100.00;100955.84;5132267;27;20501;-53
2023/11/25 11:18:26;;;;;;;10.73;1.90;;;;;;;6.21;100.00;100949.63;5129299;28;20112;-54
2023/11/25 11:20:59;;;;;;;6.97;1.55;;;;;;;6.09;100.00;100954.50;5129753;28;20046;-54
2023/11/25 11:23:28;;;;;;;8.23;1.80;;;;;;;6.03;100.00;100952.13;5129459;27;20130;-54
2023/11/25 11:26:08;;;;;;;9.25;1.73;;;;;;;6.08;100.00;100944.09;5128700;27;20050;-51
2023/11/25 11:28:45;;;;;;;9.05;1.45;;;;;;;6.04;100.00;100937.31;5132442;27;20043;-53
2023/11/25 11:31:50;;;;;;;10.90;2.10;;;;;;;6.07;100.00;100940.66;5128897;28;20055;-54
2023/11/25 11:34:18;;;;;;;8.80;1.90;;;;;;;6.04;100.00;100932.09;5130047;28;20055;-54